createdAt,value
2022-12-22T00:00:48.712Z,1.55
2022-12-22T00:03:50.979Z,1.50
2022-12-22T00:06:54.210Z,2.10
2022-12-22T00:09:57.017Z,1.55
2022-12-22T00:12:59.671Z,1.80
2022-12-22T00:16:02.141Z,1.65
2022-12-22T00:19:05.116Z,1.77
2022-12-22T00:22:07.687Z,1.60
2022-12-22T00:25:10.730Z,1.70
2022-12-22T00:28:13.980Z,1.70
2022-12-22T00:31:16.907Z,1.88
2022-12-22T00:34:19.531Z,1.98
2022-12-22T00:37:21.653Z,1.80
2022-12-22T00:40:23.993Z,1.60
2022-12-22T00:43:27.034Z,1.67
2022-12-22T00:46:29.762Z,1.70
2022-12-22T00:49:32.823Z,1.67
2022-12-22T00:52:35.751Z,1.80
2022-12-22T00:55:38.338Z,1.70
2022-12-22T00:58:41.673Z,1.75
2022-12-22T01:01:44.094Z,1.63
2022-12-22T01:04:46.942Z,1.90
2022-12-22T01:07:49.049Z,1.92
2022-12-22T01:10:52.201Z,1.75
2022-12-22T01:13:54.600Z,1.70
2022-12-22T01:16:57.237Z,1.80
2022-12-22T01:19:59.722Z,1.83
2022-12-22T01:23:02.466Z,1.70
2022-12-22T01:26:05.070Z,1.80
2022-12-22T01:29:07.195Z,1.70
2022-12-22T01:32:10.125Z,1.77
2022-12-22T01:35:12.939Z,1.70
2022-12-22T01:38:15.326Z,1.83
2022-12-22T01:41:18.159Z,1.90
2022-12-22T01:44:21.351Z,1.85
2022-12-22T01:47:23.566Z,1.85
2022-12-22T01:50:26.121Z,1.60
2022-12-22T01:53:28.683Z,1.67
2022-12-22T01:56:30.897Z,1.80
2022-12-22T01:59:33.562Z,1.83
2022-12-22T02:02:36.384Z,1.90
2022-12-22T02:05:39.480Z,1.90
2022-12-22T02:08:42.085Z,1.90
2022-12-22T02:11:44.936Z,1.80
2022-12-22T02:14:47.533Z,1.77
2022-12-22T02:17:50.562Z,1.98
2022-12-22T02:20:52.849Z,2.00
2022-12-22T02:23:55.611Z,2.00
2022-12-22T02:26:59.253Z,2.03
2022-12-22T02:30:02.512Z,1.90
2022-12-22T02:33:09.537Z,1.90
2022-12-22T02:36:12.611Z,1.88
2022-12-22T02:39:14.986Z,2.00
2022-12-22T02:42:17.912Z,2.00
2022-12-22T02:45:20.910Z,1.80
2022-12-22T02:48:23.578Z,1.92
2022-12-22T02:51:26.416Z,2.05
2022-12-22T02:54:28.816Z,2.10
2022-12-22T02:57:31.840Z,1.92
2022-12-22T03:00:34.606Z,2.13
2022-12-22T03:03:37.949Z,1.88
2022-12-22T03:06:40.911Z,1.90
2022-12-22T03:09:43.039Z,1.85
2022-12-22T03:12:45.825Z,1.85
2022-12-22T03:15:48.535Z,1.92
2022-12-22T03:18:51.353Z,1.92
2022-12-22T03:21:54.425Z,1.85
2022-12-22T03:24:57.983Z,1.60
2022-12-22T03:28:01.188Z,1.80
2022-12-22T03:31:04.335Z,1.30
2022-12-22T03:34:07.570Z,1.70
2022-12-22T03:37:10.444Z,1.48
2022-12-22T03:40:12.983Z,1.60
2022-12-22T03:43:15.569Z,1.45
2022-12-22T03:46:18.343Z,1.40
2022-12-22T03:49:22.087Z,1.40
2022-12-22T03:52:24.489Z,1.60
2022-12-22T03:55:26.920Z,1.70
2022-12-22T03:58:29.693Z,1.48
2022-12-22T04:01:32.782Z,1.48
2022-12-22T04:04:35.305Z,1.45
2022-12-22T04:07:37.481Z,1.50
2022-12-22T04:10:40.118Z,1.35
2022-12-22T04:13:42.795Z,1.40
2022-12-22T04:16:45.753Z,1.60
2022-12-22T04:19:48.345Z,1.48
2022-12-22T04:22:50.857Z,1.65
2022-12-22T04:25:53.708Z,1.48
2022-12-22T04:28:56.717Z,1.60
2022-12-22T04:31:59.821Z,1.73
2022-12-22T04:35:03.755Z,1.52
2022-12-22T04:38:06.441Z,1.48
2022-12-22T04:41:08.968Z,1.58
2022-12-22T04:44:11.823Z,1.60
2022-12-22T04:47:15.040Z,1.50
2022-12-22T04:50:17.823Z,1.60
2022-12-22T04:53:20.107Z,1.70
2022-12-22T04:56:22.933Z,1.70
2022-12-22T04:59:26.001Z,1.60
2022-12-22T05:02:29.751Z,1.70
2022-12-22T05:05:32.290Z,1.75
2022-12-22T05:08:35.179Z,1.50
2022-12-22T05:11:38.321Z,1.80
2022-12-22T05:14:41.125Z,1.58
2022-12-22T05:17:43.911Z,1.63
2022-12-22T05:20:46.083Z,1.80
2022-12-22T05:23:48.731Z,1.48
2022-12-22T05:26:50.981Z,1.70
2022-12-22T05:29:53.613Z,1.77
2022-12-22T05:32:56.601Z,1.80
2022-12-22T05:35:59.468Z,1.90
2022-12-22T05:39:02.099Z,1.80
2022-12-22T05:42:04.275Z,1.80
2022-12-22T05:45:06.718Z,1.83
2022-12-22T05:48:09.834Z,1.63
2022-12-22T05:51:12.707Z,1.80
2022-12-22T05:54:15.649Z,1.67
2022-12-22T05:57:18.963Z,1.63
2022-12-22T06:00:22.086Z,1.55
2022-12-22T06:03:25.152Z,1.88
2022-12-22T06:06:28.698Z,1.73
2022-12-22T06:09:32.433Z,1.98
2022-12-22T06:12:35.151Z,1.90
2022-12-22T06:15:37.708Z,2.03
2022-12-22T06:18:40.616Z,2.08
2022-12-22T06:21:43.038Z,1.88
2022-12-22T06:24:45.525Z,1.77
2022-12-22T06:27:48.141Z,1.75
2022-12-22T06:30:51.627Z,2.00
2022-12-22T06:33:54.715Z,1.83
2022-12-22T06:36:57.152Z,1.98
2022-12-22T06:39:59.337Z,1.85
2022-12-22T06:43:08.409Z,1.90
2022-12-22T06:46:12.109Z,2.08
2022-12-22T06:49:15.332Z,1.95
2022-12-22T06:52:18.807Z,2.00
2022-12-22T06:55:20.974Z,2.20
2022-12-22T06:58:23.516Z,1.80
2022-12-22T07:01:25.728Z,1.90
2022-12-22T07:04:28.338Z,2.10
2022-12-22T07:07:30.907Z,2.53
2022-12-22T07:10:33.660Z,2.28
2022-12-22T07:13:35.880Z,1.88
2022-12-22T07:16:38.147Z,1.98
2022-12-22T07:19:40.706Z,1.77
2022-12-22T07:22:43.263Z,1.90
2022-12-22T07:25:46.086Z,1.60
2022-12-22T07:28:49.268Z,1.80
2022-12-22T07:31:52.065Z,1.60
2022-12-22T07:34:57.721Z,1.90
2022-12-22T07:38:03.826Z,1.65
2022-12-22T07:41:05.979Z,1.83
2022-12-22T07:44:08.584Z,2.00
2022-12-22T07:47:11.305Z,2.10
2022-12-22T07:50:13.903Z,1.90
2022-12-22T07:53:16.519Z,2.17
2022-12-22T07:56:19.688Z,2.30
2022-12-22T07:59:21.936Z,2.33
2022-12-22T08:02:24.542Z,2.10
2022-12-22T08:05:27.202Z,2.40
2022-12-22T08:08:29.763Z,2.50
2022-12-22T08:11:32.476Z,2.58
2022-12-22T08:14:35.464Z,2.40
2022-12-22T08:17:38.284Z,2.53
2022-12-22T08:20:41.038Z,2.55
2022-12-22T08:23:43.937Z,2.90
2022-12-22T08:26:46.737Z,3.00
2022-12-22T08:29:49.690Z,2.70
2022-12-22T08:32:51.903Z,2.40
2022-12-22T08:35:54.182Z,2.70
2022-12-22T08:38:56.394Z,2.70
2022-12-22T08:41:58.883Z,2.72
2022-12-22T08:45:01.636Z,2.83
2022-12-22T08:48:04.757Z,3.03
2022-12-22T08:51:07.716Z,2.80
2022-12-22T08:54:10.956Z,2.70
2022-12-22T08:57:13.782Z,2.83
2022-12-22T09:00:16.421Z,2.90
2022-12-22T09:03:19.014Z,3.20
2022-12-22T09:06:26.950Z,3.30
2022-12-22T09:09:30.557Z,3.47
2022-12-22T09:12:33.129Z,3.05
2022-12-22T09:15:35.298Z,3.30
2022-12-22T09:18:37.225Z,3.22
2022-12-22T09:21:39.468Z,2.78
2022-12-22T09:24:42.138Z,3.33
2022-12-22T09:27:44.334Z,3.13
2022-12-22T09:30:46.488Z,3.58
2022-12-22T09:33:49.454Z,3.30
2022-12-22T09:36:52.752Z,3.00
2022-12-22T09:39:55.433Z,3.20
2022-12-22T09:42:58.649Z,3.35
2022-12-22T09:46:01.540Z,3.13
2022-12-22T09:49:04.328Z,3.35
2022-12-22T09:52:07.015Z,3.30
2022-12-22T09:55:10.105Z,3.38
2022-12-22T09:58:13.760Z,3.42
2022-12-22T10:01:16.689Z,3.40
2022-12-22T10:04:18.801Z,3.42
2022-12-22T10:07:21.262Z,3.20
2022-12-22T10:10:24.087Z,3.85
2022-12-22T10:13:26.303Z,3.95
2022-12-22T10:16:28.511Z,3.15
2022-12-22T10:19:30.844Z,2.90
2022-12-22T10:22:33.632Z,3.20
2022-12-22T10:26:00.540Z,2.97
2022-12-22T10:28:57.804Z,2.75
2022-12-22T10:32:00.570Z,2.92
2022-12-22T10:35:03.158Z,2.40
2022-12-22T10:38:06.050Z,2.97
2022-12-22T10:41:25.475Z,3.33
2022-12-22T10:44:28.088Z,2.50
2022-12-22T10:47:30.688Z,2.60
2022-12-22T10:50:33.657Z,2.30
2022-12-22T10:53:36.159Z,3.15
2022-12-22T10:56:39.043Z,2.30
2022-12-22T10:59:41.254Z,2.60
2022-12-22T11:02:44.617Z,2.40
2022-12-22T11:05:48.210Z,2.47
2022-12-22T11:08:51.750Z,2.70
2022-12-22T11:11:54.629Z,2.50
2022-12-22T11:14:57.532Z,2.47
2022-12-22T11:17:59.705Z,2.58
2022-12-22T11:21:01.860Z,2.60
2022-12-22T11:24:04.014Z,2.70
2022-12-22T11:27:06.574Z,2.40
2022-12-22T11:30:09.604Z,2.17
2022-12-22T11:33:12.248Z,2.38
2022-12-22T11:36:15.272Z,2.50
2022-12-22T11:39:18.261Z,2.55
2022-12-22T11:42:21.135Z,2.60
2022-12-22T11:45:23.387Z,2.40
2022-12-22T11:48:25.721Z,2.60
2022-12-22T11:51:28.651Z,2.70
2022-12-22T11:54:31.320Z,2.42
2022-12-22T11:57:35.018Z,2.25
2022-12-22T12:01:12.702Z,2.35
2022-12-22T12:04:00.498Z,2.80
2022-12-22T12:07:03.750Z,2.60
2022-12-22T12:10:06.703Z,2.65
2022-12-22T12:13:09.334Z,2.50
2022-12-22T12:16:11.527Z,2.70
2022-12-22T12:19:14.601Z,2.65
2022-12-22T12:22:17.624Z,2.80
2022-12-22T12:25:25.620Z,2.75
2022-12-22T12:28:28.495Z,2.55
2022-12-22T12:31:31.633Z,2.88
2022-12-22T12:34:34.555Z,2.70
2022-12-22T12:37:36.785Z,2.65
2022-12-22T12:40:39.316Z,2.90
2022-12-22T12:43:42.304Z,2.85
2022-12-22T12:46:45.192Z,2.95
2022-12-22T12:49:47.489Z,2.90
2022-12-22T12:52:50.439Z,2.92
2022-12-22T12:55:53.576Z,2.78
2022-12-22T12:58:56.342Z,2.60
2022-12-22T13:01:58.947Z,3.08
2022-12-22T13:05:02.120Z,2.88
2022-12-22T13:08:04.311Z,3.08
2022-12-22T13:11:06.886Z,2.60
2022-12-22T13:14:09.887Z,2.90
2022-12-22T13:17:12.374Z,3.00
2022-12-22T13:20:14.922Z,2.88
2022-12-22T13:23:17.821Z,3.38
2022-12-22T13:26:20.358Z,2.95
2022-12-22T13:29:22.874Z,2.88
2022-12-22T13:32:25.937Z,3.15
2022-12-22T13:35:31.408Z,2.97
2022-12-22T13:38:34.691Z,2.88
2022-12-22T13:41:38.162Z,3.20
2022-12-22T13:44:41.169Z,3.03
2022-12-22T13:47:44.115Z,3.08
2022-12-22T13:50:46.568Z,3.03
2022-12-22T13:54:07.927Z,2.90
2022-12-22T13:57:11.591Z,2.83
2022-12-22T14:00:14.391Z,3.40
2022-12-22T14:03:41.842Z,2.90
2022-12-22T14:06:39.067Z,3.30
2022-12-22T14:09:41.824Z,3.08
2022-12-22T14:12:44.062Z,3.10
2022-12-22T14:15:46.203Z,3.10
2022-12-22T14:18:48.677Z,3.53
2022-12-22T14:21:51.482Z,3.50
2022-12-22T14:24:53.672Z,3.40
2022-12-22T14:27:56.217Z,3.05
2022-12-22T14:30:59.093Z,3.50
2022-12-22T14:34:02.138Z,3.17
2022-12-22T14:37:05.072Z,4.07
2022-12-22T14:40:07.766Z,3.72
2022-12-22T14:43:10.808Z,3.60
2022-12-22T14:46:13.772Z,3.40
2022-12-22T14:49:15.982Z,3.83
2022-12-22T14:52:19.221Z,4.00
2022-12-22T14:55:22.443Z,3.63
2022-12-22T14:58:24.991Z,3.35
2022-12-22T15:01:27.917Z,2.90
2022-12-22T15:04:30.377Z,3.33
2022-12-22T15:08:04.957Z,3.20
2022-12-22T15:10:55.509Z,3.13
2022-12-22T15:13:58.804Z,3.13
2022-12-22T15:17:01.833Z,3.15
2022-12-22T15:20:04.894Z,3.25
2022-12-22T15:23:07.788Z,3.17
2022-12-22T15:26:10.049Z,3.40
2022-12-22T15:29:12.686Z,3.75
2022-12-22T15:32:15.703Z,3.30
2022-12-22T15:35:19.011Z,3.05
2022-12-22T15:38:21.923Z,3.22
2022-12-22T15:41:24.540Z,3.20
2022-12-22T15:44:27.312Z,3.25
2022-12-22T15:47:30.540Z,3.97
2022-12-22T15:50:38.729Z,3.80
2022-12-22T15:53:42.303Z,4.18
2022-12-22T15:56:44.778Z,3.53
2022-12-22T15:59:47.440Z,3.60
2022-12-22T16:02:50.258Z,3.50
2022-12-22T16:05:52.897Z,3.78
2022-12-22T16:08:56.265Z,4.28
2022-12-22T16:11:58.516Z,4.40
2022-12-22T16:15:01.484Z,4.30
2022-12-22T16:18:03.933Z,4.13
2022-12-22T16:21:06.132Z,3.90
2022-12-22T16:24:08.324Z,4.30
2022-12-22T16:27:10.905Z,4.47
2022-12-22T16:30:13.094Z,4.60
2022-12-22T16:33:16.204Z,4.45
2022-12-22T16:36:19.017Z,4.40
2022-12-22T16:39:21.914Z,4.45
2022-12-22T16:45:44.839Z,4.70
2022-12-22T16:48:48.564Z,5.15
2022-12-22T16:51:51.609Z,4.38
2022-12-22T16:54:54.491Z,4.63
2022-12-22T16:57:57.172Z,4.82
2022-12-22T17:00:59.366Z,5.00
2022-12-22T17:04:02.349Z,4.60
2022-12-22T17:07:06.051Z,4.20
2022-12-22T17:10:08.822Z,4.90
2022-12-22T17:13:12.146Z,4.55
2022-12-22T17:16:15.285Z,4.82
2022-12-22T17:19:18.077Z,4.60
2022-12-22T17:22:20.835Z,4.40
2022-12-22T17:25:23.448Z,4.80
2022-12-22T17:28:26.347Z,4.43
2022-12-22T17:31:28.765Z,4.40
2022-12-22T17:34:31.752Z,4.65
2022-12-22T17:37:34.649Z,4.78
2022-12-22T17:40:37.293Z,4.72
2022-12-22T17:43:40.039Z,4.20
2022-12-22T17:46:42.956Z,4.07
2022-12-22T17:49:45.462Z,3.70
2022-12-22T17:52:48.109Z,3.42
2022-12-22T17:56:07.651Z,3.33
2022-12-22T17:59:11.200Z,3.40
2022-12-22T18:02:13.976Z,3.17
2022-12-22T18:05:16.284Z,3.20
2022-12-22T18:08:18.911Z,3.33
2022-12-22T18:11:21.850Z,2.75
2022-12-22T18:14:24.995Z,2.83
2022-12-22T18:17:31.638Z,3.25
2022-12-22T18:20:37.590Z,2.85
2022-12-22T18:23:43.231Z,2.80
2022-12-22T18:26:51.849Z,3.00
2022-12-22T18:29:54.762Z,3.08
2022-12-22T18:32:57.117Z,2.80
2022-12-22T18:35:59.769Z,2.92
2022-12-22T18:39:02.493Z,3.10
2022-12-22T18:42:04.721Z,3.10
2022-12-22T18:45:07.297Z,3.00
2022-12-22T18:48:10.134Z,2.90
2022-12-22T18:51:12.967Z,2.90
2022-12-22T18:54:20.033Z,3.17
2022-12-22T18:57:25.960Z,2.90
2022-12-22T19:00:28.157Z,2.90
2022-12-22T19:03:30.977Z,2.70
2022-12-22T19:06:33.595Z,2.90
2022-12-22T19:09:36.634Z,2.92
2022-12-22T19:12:40.047Z,2.60
2022-12-22T19:15:43.477Z,2.60
2022-12-22T19:18:46.300Z,2.80
2022-12-22T19:21:48.930Z,2.83
2022-12-22T19:24:51.370Z,2.83
2022-12-22T19:27:54.894Z,2.80
2022-12-22T19:30:57.562Z,2.70
2022-12-22T19:34:00.018Z,2.65
2022-12-22T19:37:02.696Z,2.60
2022-12-22T19:40:05.769Z,2.70
2022-12-22T19:43:08.667Z,2.60
2022-12-22T19:46:11.912Z,2.78
2022-12-22T19:49:14.884Z,3.10
2022-12-22T19:52:17.135Z,2.55
2022-12-22T19:55:19.801Z,2.58
2022-12-22T19:58:22.819Z,2.53
2022-12-22T20:01:25.416Z,2.70
2022-12-22T20:04:28.009Z,2.55
2022-12-22T20:07:31.138Z,2.70
2022-12-22T20:10:33.987Z,2.70
2022-12-22T20:13:36.639Z,2.92
2022-12-22T20:16:39.597Z,2.70
2022-12-22T20:19:42.038Z,2.78
2022-12-22T20:22:44.683Z,2.47
2022-12-22T20:25:47.144Z,2.83
2022-12-22T20:28:49.496Z,2.72
2022-12-22T20:31:52.265Z,2.70
2022-12-22T20:34:54.961Z,2.47
2022-12-22T20:37:57.623Z,2.85
2022-12-22T20:40:59.919Z,2.72
2022-12-22T20:44:02.529Z,2.70
2022-12-22T20:47:05.468Z,2.65
2022-12-22T20:50:08.691Z,2.40
2022-12-22T20:53:11.929Z,2.33
2022-12-22T20:56:15.173Z,2.58
2022-12-22T20:59:18.359Z,2.30
2022-12-22T21:02:21.123Z,2.20
2022-12-22T21:05:23.949Z,2.85
2022-12-22T21:08:26.606Z,2.53
2022-12-22T21:11:28.863Z,2.60
2022-12-22T21:14:31.927Z,2.38
2022-12-22T21:17:34.756Z,2.47
2022-12-22T21:20:37.143Z,2.80
2022-12-22T21:23:39.580Z,2.50
2022-12-22T21:26:41.673Z,2.28
2022-12-22T21:29:44.439Z,2.13
2022-12-22T21:32:47.204Z,2.35
2022-12-22T21:35:50.072Z,2.50
2022-12-22T21:38:52.678Z,2.67
2022-12-22T21:41:55.522Z,2.20
2022-12-22T21:44:58.501Z,1.92
2022-12-22T21:48:01.150Z,1.70
2022-12-22T21:51:03.484Z,1.90
2022-12-22T21:54:06.183Z,1.70
2022-12-22T21:57:09.012Z,1.70
2022-12-22T22:00:11.870Z,1.90
2022-12-22T22:03:14.736Z,1.50
2022-12-22T22:06:17.624Z,1.75
2022-12-22T22:09:20.301Z,1.30
2022-12-22T22:12:28.091Z,1.52
2022-12-22T22:15:31.318Z,1.50
2022-12-22T22:18:33.962Z,1.38
2022-12-22T22:21:37.166Z,1.60
2022-12-22T22:24:40.320Z,1.70
2022-12-22T22:27:47.704Z,1.40
2022-12-22T22:30:50.518Z,1.20
2022-12-22T22:33:53.249Z,1.48
2022-12-22T22:36:56.201Z,1.50
2022-12-22T22:39:59.020Z,1.40
2022-12-22T22:43:02.089Z,1.58
2022-12-22T22:46:04.733Z,1.45
2022-12-22T22:49:07.631Z,1.42
2022-12-22T22:52:10.503Z,1.50
2022-12-22T22:55:13.659Z,1.42
2022-12-22T22:58:16.961Z,1.38
2022-12-22T23:01:20.728Z,1.40
2022-12-22T23:04:23.980Z,1.50
2022-12-22T23:07:26.924Z,1.30
2022-12-22T23:10:29.583Z,1.42
2022-12-22T23:13:32.219Z,1.50
2022-12-22T23:16:38.286Z,1.40
2022-12-22T23:19:41.695Z,1.50
2022-12-22T23:22:44.903Z,1.20
2022-12-22T23:25:47.325Z,1.23
2022-12-22T23:28:49.432Z,1.50
2022-12-22T23:31:52.360Z,1.42
2022-12-22T23:34:54.903Z,1.48
2022-12-22T23:37:57.551Z,1.33
2022-12-22T23:41:00.153Z,1.50
2022-12-22T23:44:03.054Z,1.60
2022-12-22T23:47:05.958Z,1.58
2022-12-22T23:50:08.473Z,1.60
2022-12-22T23:53:11.124Z,1.45
2022-12-22T23:56:13.704Z,1.42
2022-12-22T23:59:16.569Z,1.60
